Time;durP1;ratioP1;P1;durP2;ratioP2;P2;SDS_P1;SDS_P2;PMS_P1;PMS_P2;Temp;Humidity;BMP_temperature;BMP_pressure;BME280_temperature;BME280_humidity;BME280_pressure;Samples;Min_cycle;Max_cycle;Signal;HPM_P1;HPM_P2
2021/05/30 00:00:22;;;;;;;22.33;19.10;;;;;;;;;;4973922;28;20455;-66
2021/05/30 00:02:48;;;;;;;21.00;18.77;;;;;;;;;;4989623;28;20479;-65
2021/05/30 00:05:16;;;;;;;19.47;17.50;;;;;;;;;;4973473;28;20443;-65
2021/05/30 00:07:42;;;;;;;20.10;17.23;;;;;;;;;;4972683;28;20455;-65
2021/05/30 00:10:09;;;;;;;21.27;18.97;;;;;;;;;;4954290;29;20436;-65
2021/05/30 00:12:36;;;;;;;20.07;17.80;;;;;;;;;;4953317;28;20472;-65
2021/05/30 00:15:04;;;;;;;19.17;17.37;;;;;;;;;;4972945;28;20478;-65
2021/05/30 00:17:30;;;;;;;19.87;17.90;;;;;;;;;;4973265;28;20967;-65
2021/05/30 00:19:57;;;;;;;20.70;18.60;;;;;;;;;;4972470;28;20452;-65
2021/05/30 00:22:24;;;;;;;19.93;17.83;;;;;;;;;;4973466;28;20490;-65
2021/05/30 00:24:51;;;;;;;22.43;18.30;;;;;;;;;;4972620;28;20451;-66
2021/05/30 00:27:18;;;;;;;20.90;18.80;;;;;;;;;;4972763;28;20451;-65
2021/05/30 00:29:44;;;;;;;24.90;19.43;;;;;;;;;;4972305;28;20831;-65
2021/05/30 00:32:11;;;;;;;23.57;19.10;;;;;;;;;;4972827;28;20471;-65
2021/05/30 00:34:37;;;;;;;21.50;19.40;;;;;;;;;;4982371;28;20461;-65
2021/05/30 00:37:04;;;;;;;21.40;19.30;;;;;;;;;;4984204;28;20459;-66
2021/05/30 00:39:32;;;;;;;23.00;20.60;;;;;;;;;;4978036;28;20451;-65
2021/05/30 00:41:58;;;;;;;25.50;20.60;;;;;;;;;;4972353;28;20486;-65
2021/05/30 00:44:26;;;;;;;22.77;19.87;;;;;;;;;;4972801;28;20455;-66
2021/05/30 00:46:53;;;;;;;25.90;19.73;;;;;;;;;;4972179;28;20458;-66
2021/05/30 00:49:19;;;;;;;23.47;20.93;;;;;;;;;;4972999;28;20843;-65
2021/05/30 00:51:46;;;;;;;23.77;21.33;;;;;;;;;;4972644;28;20478;-65
2021/05/30 00:54:13;;;;;;;24.63;21.20;;;;;;;;;;4972536;28;20447;-67
2021/05/30 00:56:41;;;;;;;22.17;19.77;;;;;;;;;;4971907;28;20451;-66
2021/05/30 00:59:09;;;;;;;24.43;20.50;;;;;;;;;;4972713;28;20823;-66
2021/05/30 01:01:36;;;;;;;24.70;19.93;;;;;;;;;;4972254;28;20520;-65
2021/05/30 01:04:02;;;;;;;22.13;19.53;;;;;;;;;;4972729;28;20459;-65
2021/05/30 01:06:29;;;;;;;23.10;20.70;;;;;;;;;;4971929;28;20455;-67
2021/05/30 01:08:58;;;;;;;23.70;20.80;;;;;;;;;;4973580;28;20542;-66
2021/05/30 01:11:24;;;;;;;25.70;20.03;;;;;;;;;;4976425;28;20822;-66
2021/05/30 01:13:53;;;;;;;23.53;20.47;;;;;;;;;;4976006;28;20473;-66
2021/05/30 01:16:20;;;;;;;23.27;20.77;;;;;;;;;;4975838;28;20454;-66
2021/05/30 01:18:48;;;;;;;27.97;21.17;;;;;;;;;;4976430;28;20451;-65
2021/05/30 01:21:15;;;;;;;23.00;20.67;;;;;;;;;;4959486;28;20886;-65
2021/05/30 01:23:42;;;;;;;27.63;21.27;;;;;;;;;;4976411;28;20506;-65
2021/05/30 01:26:09;;;;;;;24.73;21.03;;;;;;;;;;4975466;28;20459;-65
2021/05/30 01:28:35;;;;;;;24.60;22.00;;;;;;;;;;4975297;28;20483;-65
2021/05/30 01:31:02;;;;;;;30.03;20.30;;;;;;;;;;4976402;28;20804;-66
2021/05/30 01:33:29;;;;;;;27.90;20.10;;;;;;;;;;4966454;28;20471;-65
2021/05/30 01:35:55;;;;;;;23.47;20.97;;;;;;;;;;4979406;28;20455;-66
2021/05/30 01:38:22;;;;;;;24.20;20.80;;;;;;;;;;4975703;28;20453;-65
2021/05/30 01:40:49;;;;;;;22.60;20.20;;;;;;;;;;4975869;28;20447;-65
2021/05/30 01:43:16;;;;;;;25.33;19.50;;;;;;;;;;4976707;28;20503;-65
2021/05/30 01:45:43;;;;;;;23.97;19.90;;;;;;;;;;4975437;28;20451;-65
2021/05/30 01:48:09;;;;;;;27.40;22.20;;;;;;;;;;4976120;28;20498;-66
2021/05/30 01:50:37;;;;;;;22.80;20.40;;;;;;;;;;4976551;28;20465;-65
2021/05/30 01:53:07;;;;;;;24.00;21.50;;;;;;;;;;4975527;28;20541;-65
2021/05/30 01:56:55;;;;;;;28.33;21.20;;;;;;;;;;4975141;28;20447;-67
2021/05/30 01:58:43;;;;;;;25.60;22.10;;;;;;;;;;4974772;28;20510;-65
2021/05/30 02:01:11;;;;;;;24.50;21.93;;;;;;;;;;4975986;28;20471;-65
2021/05/30 02:03:38;;;;;;;26.30;20.93;;;;;;;;;;4979815;28;20455;-65
2021/05/30 02:06:05;;;;;;;29.70;20.97;;;;;;;;;;4994551;28;20450;-65
2021/05/30 02:08:33;;;;;;;29.83;22.03;;;;;;;;;;4982951;28;20501;-65
2021/05/30 02:10:59;;;;;;;27.37;21.40;;;;;;;;;;4975346;28;20868;-64
2021/05/30 02:13:27;;;;;;;29.60;21.40;;;;;;;;;;4975464;28;20459;-64
2021/05/30 02:15:54;;;;;;;26.63;20.43;;;;;;;;;;4975127;28;20455;-65
2021/05/30 02:18:21;;;;;;;26.57;21.03;;;;;;;;;;4978420;28;20469;-65
2021/05/30 02:20:47;;;;;;;24.77;20.97;;;;;;;;;;4994591;28;20455;-65
2021/05/30 02:23:15;;;;;;;27.57;22.40;;;;;;;;;;4987706;28;20448;-65
2021/05/30 02:25:42;;;;;;;27.10;23.10;;;;;;;;;;4974804;28;20482;-65
2021/05/30 02:28:09;;;;;;;23.07;20.63;;;;;;;;;;4974471;28;20501;-65
2021/05/30 02:30:35;;;;;;;25.73;23.13;;;;;;;;;;4975090;28;20943;-65
2021/05/30 02:33:03;;;;;;;32.20;23.03;;;;;;;;;;4975101;28;20486;-64
2021/05/30 02:35:30;;;;;;;25.67;22.97;;;;;;;;;;4974409;28;20459;-65
2021/05/30 02:37:57;;;;;;;31.63;22.63;;;;;;;;;;4974490;28;20456;-64
2021/05/30 02:40:24;;;;;;;26.77;23.50;;;;;;;;;;4974978;28;20513;-65
2021/05/30 02:42:51;;;;;;;30.37;24.80;;;;;;;;;;5023001;23;20505;-66
2021/05/30 02:45:17;;;;;;;33.20;26.53;;;;;;;;;;4986731;28;20459;-67
2021/05/30 02:47:45;;;;;;;32.73;21.93;;;;;;;;;;4979515;28;20474;-70
2021/05/30 02:50:13;;;;;;;35.87;26.53;;;;;;;;;;4994296;28;20541;-66
2021/05/30 02:52:39;;;;;;;24.37;21.77;;;;;;;;;;4993556;28;20853;-67
2021/05/30 02:55:06;;;;;;;29.53;25.03;;;;;;;;;;4993436;28;20829;-67
2021/05/30 02:57:33;;;;;;;27.50;23.13;;;;;;;;;;4977197;28;20455;-67
2021/05/30 03:00:00;;;;;;;29.00;23.17;;;;;;;;;;4991997;28;20455;-66
2021/05/30 03:02:26;;;;;;;34.53;24.37;;;;;;;;;;4994084;28;21045;-68
2021/05/30 03:04:53;;;;;;;24.67;22.07;;;;;;;;;;4993881;28;20496;-68
2021/05/30 03:07:20;;;;;;;27.17;23.17;;;;;;;;;;4993280;28;20451;-67
2021/05/30 03:09:47;;;;;;;33.07;24.53;;;;;;;;;;4993772;28;20482;-70
2021/05/30 03:12:14;;;;;;;27.33;23.50;;;;;;;;;;4991221;28;20528;-70
2021/05/30 03:14:40;;;;;;;28.80;23.00;;;;;;;;;;4994147;28;20454;-69
2021/05/30 03:17:07;;;;;;;30.33;24.47;;;;;;;;;;4992523;28;20903;-67
2021/05/30 03:19:33;;;;;;;25.77;23.20;;;;;;;;;;4993961;28;20466;-71
2021/05/30 03:22:00;;;;;;;26.40;22.60;;;;;;;;;;4993630;28;20866;-68
2021/05/30 03:24:28;;;;;;;27.63;24.23;;;;;;;;;;4993528;28;20455;-68
2021/05/30 03:26:54;;;;;;;29.50;23.93;;;;;;;;;;4993140;28;20457;-68
2021/05/30 03:29:21;;;;;;;28.50;25.13;;;;;;;;;;4993065;28;21001;-69
2021/05/30 03:31:47;;;;;;;29.30;24.23;;;;;;;;;;4978264;28;20471;-68
2021/05/30 03:34:14;;;;;;;28.03;22.87;;;;;;;;;;4989708;28;20454;-68
2021/05/30 03:36:41;;;;;;;24.90;22.07;;;;;;;;;;4993068;28;20450;-69
2021/05/30 03:39:09;;;;;;;25.37;21.90;;;;;;;;;;4993101;28;20454;-69
2021/05/30 03:41:40;;;;;;;27.93;24.90;;;;;;;;;;4993191;28;20465;-66
2021/05/30 03:44:07;;;;;;;29.20;23.70;;;;;;;;;;4987211;28;20608;-69
2021/05/30 03:46:34;;;;;;;27.13;23.90;;;;;;;;;;4992359;28;20450;-66
2021/05/30 03:49:00;;;;;;;32.17;25.67;;;;;;;;;;4992592;28;21105;-69
2021/05/30 03:51:27;;;;;;;27.13;23.10;;;;;;;;;;4983804;28;20448;-69
2021/05/30 03:53:54;;;;;;;28.80;24.57;;;;;;;;;;4990753;28;20462;-64
2021/05/30 03:56:21;;;;;;;26.50;23.13;;;;;;;;;;4992237;28;20464;-68
2021/05/30 03:58:48;;;;;;;30.93;25.57;;;;;;;;;;4992790;28;20450;-68
2021/05/30 04:01:15;;;;;;;27.43;24.53;;;;;;;;;;4993312;28;20483;-69
2021/05/30 04:03:41;;;;;;;30.63;25.33;;;;;;;;;;4992704;28;20541;-68
2021/05/30 04:06:08;;;;;;;30.30;27.30;;;;;;;;;;4992288;28;20457;-67
2021/05/30 04:08:35;;;;;;;33.27;29.33;;;;;;;;;;4993043;28;20494;-65
2021/05/30 04:11:01;;;;;;;33.77;30.07;;;;;;;;;;4991585;28;20454;-67
2021/05/30 04:13:28;;;;;;;38.00;30.83;;;;;;;;;;4992370;28;20475;-67
2021/05/30 04:15:55;;;;;;;37.80;28.77;;;;;;;;;;4992173;28;20504;-66
2021/05/30 04:18:22;;;;;;;34.00;29.10;;;;;;;;;;4992483;28;20451;-69
2021/05/30 04:20:49;;;;;;;32.33;28.60;;;;;;;;;;4993203;28;20450;-69
2021/05/30 04:23:16;;;;;;;32.20;27.90;;;;;;;;;;4992798;28;20485;-69
2021/05/30 04:25:43;;;;;;;32.50;28.70;;;;;;;;;;4992719;28;20460;-68
2021/05/30 04:28:09;;;;;;;32.80;29.77;;;;;;;;;;4994266;28;20545;-69
2021/05/30 04:30:36;;;;;;;33.50;30.00;;;;;;;;;;4998633;28;20451;-69
2021/05/30 04:33:04;;;;;;;34.37;29.30;;;;;;;;;;4992980;28;20474;-72
2021/05/30 04:35:31;;;;;;;35.37;31.80;;;;;;;;;;4991603;28;20454;-68
2021/05/30 04:37:57;;;;;;;35.37;31.60;;;;;;;;;;4992236;28;20458;-68
2021/05/30 04:40:24;;;;;;;35.60;32.10;;;;;;;;;;4992468;28;20450;-68
2021/05/30 04:42:51;;;;;;;35.87;32.07;;;;;;;;;;4991026;28;20498;-72
2021/05/30 04:45:18;;;;;;;36.30;32.50;;;;;;;;;;4992060;28;20822;-68
2021/05/30 04:47:45;;;;;;;36.60;32.73;;;;;;;;;;4989634;28;20454;-69
2021/05/30 04:50:12;;;;;;;36.17;32.47;;;;;;;;;;4975553;28;20518;-67
2021/05/30 04:52:40;;;;;;;37.17;33.27;;;;;;;;;;4992081;28;20479;-65
2021/05/30 04:55:07;;;;;;;35.40;31.57;;;;;;;;;;4985481;28;20452;-67
2021/05/30 04:57:34;;;;;;;32.83;29.60;;;;;;;;;;4990284;28;20473;-66
2021/05/30 05:00:00;;;;;;;32.70;29.50;;;;;;;;;;4992329;28;20454;-69
2021/05/30 05:02:27;;;;;;;33.47;30.07;;;;;;;;;;4991146;28;20481;-70
2021/05/30 05:04:54;;;;;;;31.50;28.20;;;;;;;;;;4983893;28;20463;-65
2021/05/30 05:07:21;;;;;;;32.07;28.90;;;;;;;;;;4986689;28;20451;-72
2021/05/30 05:09:48;;;;;;;33.07;29.73;;;;;;;;;;4992165;28;20834;-67
2021/05/30 05:12:14;;;;;;;38.43;31.60;;;;;;;;;;4991410;28;20485;-66
2021/05/30 05:14:41;;;;;;;35.37;31.77;;;;;;;;;;4992014;28;20504;-66
2021/05/30 05:17:08;;;;;;;38.20;34.10;;;;;;;;;;4990267;28;20461;-68
2021/05/30 05:19:34;;;;;;;39.33;34.17;;;;;;;;;;4992230;28;20454;-70
2021/05/30 05:22:01;;;;;;;40.53;35.63;;;;;;;;;;4991850;28;20474;-73
2021/05/30 05:24:29;;;;;;;36.90;32.40;;;;;;;;;;4991539;28;20454;-68
2021/05/30 05:26:56;;;;;;;38.23;31.57;;;;;;;;;;4991387;28;20455;-73
2021/05/30 05:29:23;;;;;;;35.30;31.50;;;;;;;;;;4991644;28;20514;-72
2021/05/30 05:31:49;;;;;;;35.30;30.20;;;;;;;;;;4991175;28;20470;-66
2021/05/30 05:34:16;;;;;;;35.90;31.50;;;;;;;;;;4991797;28;20459;-66
2021/05/30 05:36:42;;;;;;;30.03;26.97;;;;;;;;;;4990767;28;20458;-70
2021/05/30 05:39:09;;;;;;;31.80;27.43;;;;;;;;;;4991394;28;20517;-67
2021/05/30 05:41:36;;;;;;;33.60;29.67;;;;;;;;;;4991657;28;20451;-65
2021/05/30 05:44:03;;;;;;;30.57;27.43;;;;;;;;;;4991979;28;20453;-66
2021/05/30 05:46:30;;;;;;;12.10;10.90;;;;;;;;;;4979881;28;21017;-64
2021/05/30 05:48:56;;;;;;;14.67;11.50;;;;;;;;;;4979889;28;21017;-64
2021/05/30 05:51:23;;;;;;;15.93;13.20;;;;;;;;;;4991365;28;20451;-65
2021/05/30 05:53:50;;;;;;;18.43;12.23;;;;;;;;;;4992057;28;20451;-66
2021/05/30 05:56:16;;;;;;;14.13;12.50;;;;;;;;;;4985125;28;20525;-66
2021/05/30 05:58:44;;;;;;;15.27;13.73;;;;;;;;;;4981949;28;20818;-67
2021/05/30 06:01:12;;;;;;;15.60;14.10;;;;;;;;;;4984878;28;20972;-66
2021/05/30 06:03:39;;;;;;;15.93;14.43;;;;;;;;;;4977532;28;20483;-67
2021/05/30 06:06:13;;;;;;;14.03;12.90;;;;;;;;;;4982907;28;20895;-67
2021/05/30 06:08:39;;;;;;;14.47;13.30;;;;;;;;;;4996065;28;20494;-68
2021/05/30 06:11:06;;;;;;;15.40;14.00;;;;;;;;;;4995659;28;21294;-68
2021/05/30 06:13:32;;;;;;;14.00;12.90;;;;;;;;;;4995346;28;20469;-68
2021/05/30 06:16:05;;;;;;;11.50;10.50;;;;;;;;;;4995052;28;20450;-69
2021/05/30 06:18:31;;;;;;;11.70;10.60;;;;;;;;;;4995897;28;20521;-68
2021/05/30 06:20:58;;;;;;;10.73;9.93;;;;;;;;;;4995776;28;20605;-67
2021/05/30 06:23:25;;;;;;;9.70;8.80;;;;;;;;;;4995537;28;20470;-68
2021/05/30 06:25:53;;;;;;;10.90;9.80;;;;;;;;;;4994664;28;20459;-70
2021/05/30 06:28:20;;;;;;;9.33;8.53;;;;;;;;;;4994501;28;20450;-68
2021/05/30 06:30:47;;;;;;;10.33;9.50;;;;;;;;;;4995223;28;20466;-67
2021/05/30 06:33:14;;;;;;;7.60;6.90;;;;;;;;;;4995573;28;20486;-68
2021/05/30 06:35:42;;;;;;;9.23;8.33;;;;;;;;;;4994592;28;20454;-68
2021/05/30 06:38:09;;;;;;;8.50;7.70;;;;;;;;;;4995843;28;20450;-67
2021/05/30 06:40:35;;;;;;;7.90;7.10;;;;;;;;;;4995482;28;20458;-68
2021/05/30 06:43:02;;;;;;;6.80;6.30;;;;;;;;;;4992372;28;20549;-68
2021/05/30 06:45:32;;;;;;;8.77;7.90;;;;;;;;;;4982195;28;20489;-67
2021/05/30 06:48:00;;;;;;;8.10;6.93;;;;;;;;;;4995350;28;20465;-68
2021/05/30 06:50:28;;;;;;;7.40;6.70;;;;;;;;;;4995162;28;20560;-68
2021/05/30 06:52:55;;;;;;;9.03;7.90;;;;;;;;;;4995538;28;20861;-68
2021/05/30 06:55:23;;;;;;;6.67;5.70;;;;;;;;;;4994657;28;21049;-67
2021/05/30 06:57:49;;;;;;;6.33;5.73;;;;;;;;;;4991577;28;20955;-68
2021/05/30 07:00:16;;;;;;;6.53;5.90;;;;;;;;;;4986656;28;20461;-67
2021/05/30 07:02:43;;;;;;;6.03;5.43;;;;;;;;;;4995223;28;20493;-68
2021/05/30 07:05:11;;;;;;;8.63;6.13;;;;;;;;;;4995518;28;20808;-68
2021/05/30 07:07:39;;;;;;;6.93;5.43;;;;;;;;;;4994322;28;20537;-68
2021/05/30 07:10:06;;;;;;;6.10;5.50;;;;;;;;;;4988985;28;21112;-72
2021/05/30 07:12:33;;;;;;;9.67;5.70;;;;;;;;;;4991943;28;20548;-68
2021/05/30 07:15:00;;;;;;;8.50;5.07;;;;;;;;;;4988384;28;20500;-68
2021/05/30 07:17:29;;;;;;;5.30;4.80;;;;;;;;;;4991809;28;20497;-68
2021/05/30 07:19:57;;;;;;;6.27;5.37;;;;;;;;;;4987564;28;20448;-68
2021/05/30 07:22:24;;;;;;;6.70;6.10;;;;;;;;;;4994553;28;20559;-70
2021/05/30 07:24:52;;;;;;;8.37;6.20;;;;;;;;;;4992657;28;20450;-69
2021/05/30 07:27:18;;;;;;;8.93;5.37;;;;;;;;;;4993196;28;20508;-69
2021/05/30 07:29:45;;;;;;;7.13;5.97;;;;;;;;;;4976779;28;21010;-70
2021/05/30 07:32:11;;;;;;;7.20;5.10;;;;;;;;;;4974898;28;20473;-70
2021/05/30 07:34:38;;;;;;;8.10;5.90;;;;;;;;;;4993648;28;20462;-69
2021/05/30 07:37:05;;;;;;;17.33;7.37;;;;;;;;;;4994151;28;20450;-70
2021/05/30 07:39:31;;;;;;;12.07;7.27;;;;;;;;;;4993023;28;20466;-72
2021/05/30 07:41:59;;;;;;;14.90;6.50;;;;;;;;;;4999231;28;20471;-73
2021/05/30 07:44:25;;;;;;;11.00;6.53;;;;;;;;;;5003542;28;20519;-66
2021/05/30 07:46:55;;;;;;;7.60;6.00;;;;;;;;;;4990272;28;20454;-65
2021/05/30 07:49:21;;;;;;;6.63;5.47;;;;;;;;;;4992337;28;20474;-67
2021/05/30 07:51:48;;;;;;;7.20;6.00;;;;;;;;;;5001134;28;20471;-66
2021/05/30 07:54:17;;;;;;;9.00;6.60;;;;;;;;;;4997878;28;20461;-66
2021/05/30 07:56:44;;;;;;;10.83;8.80;;;;;;;;;;4994137;28;20830;-66
2021/05/30 07:59:11;;;;;;;10.47;9.40;;;;;;;;;;4993319;28;20454;-65
2021/05/30 08:01:38;;;;;;;10.27;9.20;;;;;;;;;;4974298;28;20456;-66
2021/05/30 08:04:05;;;;;;;9.63;8.27;;;;;;;;;;4972765;28;20451;-65
2021/05/30 08:06:31;;;;;;;9.33;8.43;;;;;;;;;;4971501;28;20463;-66
2021/05/30 08:08:58;;;;;;;10.10;9.00;;;;;;;;;;4979649;28;20483;-66
2021/05/30 08:11:25;;;;;;;9.80;8.80;;;;;;;;;;4980556;28;20473;-66
2021/05/30 08:13:51;;;;;;;11.40;10.30;;;;;;;;;;4972211;28;20466;-66
2021/05/30 08:16:19;;;;;;;10.17;9.27;;;;;;;;;;4971246;28;20455;-66
2021/05/30 08:18:46;;;;;;;10.53;8.60;;;;;;;;;;4972825;28;20461;-66
2021/05/30 08:21:13;;;;;;;10.00;9.10;;;;;;;;;;4973763;28;20455;-66
2021/05/30 08:23:42;;;;;;;9.60;8.70;;;;;;;;;;4974116;28;20467;-66
2021/05/30 08:26:08;;;;;;;9.57;8.77;;;;;;;;;;4973411;28;20509;-68
2021/05/30 08:28:35;;;;;;;8.27;7.57;;;;;;;;;;4973663;28;20458;-68
2021/05/30 08:31:02;;;;;;;9.70;8.87;;;;;;;;;;4973898;28;20448;-66
2021/05/30 08:33:29;;;;;;;9.50;7.90;;;;;;;;;;4973719;28;20845;-68
2021/05/30 08:35:56;;;;;;;8.93;8.13;;;;;;;;;;4972924;28;20498;-68
2021/05/30 08:38:24;;;;;;;8.57;7.63;;;;;;;;;;4973732;28;20455;-68
2021/05/30 08:40:51;;;;;;;9.83;8.83;;;;;;;;;;4974373;28;20530;-66
2021/05/30 08:43:18;;;;;;;8.30;7.50;;;;;;;;;;4999795;23;20506;-63
2021/05/30 08:45:45;;;;;;;9.20;7.73;;;;;;;;;;4988195;28;20486;-64
2021/05/30 08:48:12;;;;;;;7.60;6.70;;;;;;;;;;4992053;28;20652;-63
2021/05/30 08:50:39;;;;;;;8.90;8.03;;;;;;;;;;4992311;28;20490;-64
2021/05/30 08:53:06;;;;;;;7.73;6.80;;;;;;;;;;4992174;28;20493;-63
2021/05/30 08:55:33;;;;;;;7.23;6.50;;;;;;;;;;4991226;28;20546;-63
2021/05/30 08:58:00;;;;;;;6.67;6.07;;;;;;;;;;4992142;28;20763;-64
2021/05/30 09:00:27;;;;;;;8.10;7.30;;;;;;;;;;4992073;28;20969;-64
2021/05/30 09:03:13;;;;;;;7.70;6.80;;;;;;;;;;4991821;28;20475;-63
2021/05/30 09:05:41;;;;;;;7.83;7.13;;;;;;;;;;4991662;28;20876;-63
2021/05/30 09:08:08;;;;;;;9.13;7.30;;;;;;;;;;4991875;28;20831;-63
2021/05/30 09:10:35;;;;;;;8.67;6.90;;;;;;;;;;4991679;28;20521;-63
2021/05/30 09:13:09;;;;;;;8.17;7.37;;;;;;;;;;4991915;28;20482;-63
2021/05/30 09:18:33;;;;;;;7.37;6.67;;;;;;;;;;4967782;28;20430;-63
2021/05/30 09:21:01;;;;;;;6.47;5.87;;;;;;;;;;4991773;28;20458;-63
2021/05/30 09:23:31;;;;;;;7.07;6.47;;;;;;;;;;4991467;28;21008;-63
2021/05/30 09:26:08;;;;;;;7.33;6.13;;;;;;;;;;4991139;28;20446;-63
2021/05/30 09:28:34;;;;;;;7.23;6.13;;;;;;;;;;4991840;28;20442;-63
2021/05/30 09:31:02;;;;;;;8.63;6.30;;;;;;;;;;4994760;28;20449;-63
2021/05/30 09:33:30;;;;;;;6.40;5.70;;;;;;;;;;4995995;28;20470;-64
2021/05/30 09:36:00;;;;;;;7.03;6.33;;;;;;;;;;4995145;28;20450;-63
2021/05/30 09:38:29;;;;;;;6.67;6.07;;;;;;;;;;4994829;28;20992;-63
2021/05/30 09:40:56;;;;;;;7.00;6.30;;;;;;;;;;4995652;28;20788;-63
2021/05/30 09:43:24;;;;;;;7.80;7.00;;;;;;;;;;4995226;28;21020;-63
2021/05/30 09:46:01;;;;;;;7.40;6.50;;;;;;;;;;4995265;28;20450;-63
2021/05/30 09:48:28;;;;;;;8.63;7.00;;;;;;;;;;4995423;28;20522;-63
2021/05/30 09:51:06;;;;;;;8.33;6.07;;;;;;;;;;4995090;28;20490;-63
2021/05/30 09:53:34;;;;;;;7.97;6.77;;;;;;;;;;4994981;28;20993;-63
2021/05/30 09:56:01;;;;;;;8.10;7.30;;;;;;;;;;4994970;28;20832;-63
2021/05/30 09:58:27;;;;;;;7.60;6.90;;;;;;;;;;4994794;28;20454;-63
2021/05/30 10:01:01;;;;;;;7.40;6.70;;;;;;;;;;4995518;28;20504;-63
2021/05/30 10:03:28;;;;;;;8.43;6.37;;;;;;;;;;4994686;28;20474;-63
2021/05/30 10:05:56;;;;;;;9.27;6.50;;;;;;;;;;4994579;28;20935;-63
2021/05/30 10:08:23;;;;;;;6.83;6.23;;;;;;;;;;4995178;28;20451;-63
2021/05/30 10:10:51;;;;;;;7.80;6.57;;;;;;;;;;4995099;28;20482;-63
2021/05/30 10:13:18;;;;;;;6.70;6.03;;;;;;;;;;4994398;28;20470;-63
2021/05/30 10:15:44;;;;;;;7.60;6.77;;;;;;;;;;4994434;28;20477;-64
2021/05/30 10:18:13;;;;;;;7.90;7.20;;;;;;;;;;4994709;28;20446;-63
2021/05/30 10:20:40;;;;;;;7.93;6.33;;;;;;;;;;4994998;28;20443;-63
2021/05/30 10:23:08;;;;;;;7.63;6.10;;;;;;;;;;4995085;28;20466;-65
2021/05/30 10:25:36;;;;;;;7.10;6.40;;;;;;;;;;4993958;28;20450;-63
2021/05/30 10:28:13;;;;;;;8.50;7.10;;;;;;;;;;4994480;28;20865;-63
2021/05/30 10:30:40;;;;;;;9.47;6.77;;;;;;;;;;4994778;28;20481;-63
2021/05/30 10:33:14;;;;;;;7.83;7.13;;;;;;;;;;4994539;28;20995;-64
2021/05/30 10:35:41;;;;;;;8.03;7.33;;;;;;;;;;4993879;28;20450;-63
2021/05/30 10:38:08;;;;;;;9.10;6.60;;;;;;;;;;4994807;28;20446;-63
2021/05/30 10:40:36;;;;;;;7.40;6.80;;;;;;;;;;4994299;28;20960;-63
2021/05/30 10:43:14;;;;;;;9.20;6.83;;;;;;;;;;4994099;28;20478;-63
2021/05/30 10:45:55;;;;;;;6.90;6.03;;;;;;;;;;4994030;28;20561;-64
2021/05/30 10:48:22;;;;;;;8.13;6.17;;;;;;;;;;4994187;28;20431;-63
2021/05/30 10:50:56;;;;;;;7.07;5.40;;;;;;;;;;4994317;28;20581;-64
2021/05/30 10:53:33;;;;;;;7.73;6.97;;;;;;;;;;4994356;28;20497;-63
2021/05/30 10:56:18;;;;;;;6.73;6.03;;;;;;;;;;4993833;28;20458;-64
2021/05/30 10:59:06;;;;;;;6.97;6.27;;;;;;;;;;4993855;28;20454;-63
2021/05/30 11:01:44;;;;;;;7.30;6.50;;;;;;;;;;4993940;28;20892;-64
2021/05/30 11:04:29;;;;;;;8.07;7.00;;;;;;;;;;4994064;28;20474;-64
2021/05/30 11:06:56;;;;;;;7.20;6.23;;;;;;;;;;4993574;28;20796;-63
2021/05/30 11:09:23;;;;;;;8.73;6.80;;;;;;;;;;4994053;28;20482;-63
2021/05/30 11:12:05;;;;;;;9.93;7.30;;;;;;;;;;4994151;28;20454;-64
2021/05/30 11:14:32;;;;;;;9.53;8.07;;;;;;;;;;4994032;28;20479;-63
2021/05/30 11:16:59;;;;;;;8.00;7.20;;;;;;;;;;4992850;28;20450;-64
2021/05/30 11:19:25;;;;;;;7.33;6.60;;;;;;;;;;4993709;28;20439;-63
2021/05/30 11:21:52;;;;;;;7.60;6.83;;;;;;;;;;4993779;28;21025;-63
2021/05/30 11:24:19;;;;;;;7.50;6.17;;;;;;;;;;4993666;28;21050;-64
2021/05/30 11:26:55;;;;;;;6.70;5.80;;;;;;;;;;4992816;28;20975;-64
2021/05/30 11:29:22;;;;;;;6.20;5.60;;;;;;;;;;4993505;28;20492;-64
2021/05/30 11:31:49;;;;;;;6.47;5.77;;;;;;;;;;4993275;28;20462;-64
2021/05/30 11:34:16;;;;;;;9.33;6.37;;;;;;;;;;4993949;28;20475;-63
2021/05/30 11:36:42;;;;;;;5.93;5.33;;;;;;;;;;4993028;28;20454;-64
2021/05/30 11:39:10;;;;;;;7.63;6.10;;;;;;;;;;4993553;28;20457;-63
2021/05/30 11:41:38;;;;;;;6.07;5.07;;;;;;;;;;4993462;28;20516;-63
2021/05/30 11:44:05;;;;;;;5.10;4.70;;;;;;;;;;4993353;28;20486;-63
2021/05/30 11:46:34;;;;;;;5.50;4.80;;;;;;;;;;4992821;28;20457;-64
2021/05/30 11:49:02;;;;;;;7.17;5.60;;;;;;;;;;4993175;28;20549;-63
2021/05/30 11:51:49;;;;;;;6.43;5.60;;;;;;;;;;4993400;28;20809;-64
2021/05/30 11:54:16;;;;;;;7.23;5.53;;;;;;;;;;4993289;28;20778;-63
2021/05/30 11:56:43;;;;;;;6.03;5.00;;;;;;;;;;4992671;28;20541;-64
2021/05/30 11:59:10;;;;;;;5.67;4.70;;;;;;;;;;4992975;28;20950;-63
2021/05/30 12:01:43;;;;;;;6.23;5.50;;;;;;;;;;4993450;28;20464;-64
2021/05/30 12:04:19;;;;;;;6.27;5.67;;;;;;;;;;4992778;28;20892;-63
2021/05/30 12:06:46;;;;;;;5.27;4.77;;;;;;;;;;4991614;28;20453;-63
2021/05/30 12:09:13;;;;;;;5.93;5.17;;;;;;;;;;4993459;28;20493;-63
2021/05/30 12:11:40;;;;;;;6.83;5.50;;;;;;;;;;4993329;28;20872;-63
2021/05/30 12:14:07;;;;;;;7.03;6.33;;;;;;;;;;4992892;28;20478;-63
2021/05/30 12:16:34;;;;;;;7.90;6.37;;;;;;;;;;4992278;28;20816;-63
2021/05/30 12:19:01;;;;;;;5.93;5.20;;;;;;;;;;4993011;28;20488;-63
2021/05/30 12:21:39;;;;;;;6.47;5.87;;;;;;;;;;4992396;28;20542;-62
2021/05/30 12:24:06;;;;;;;7.57;5.53;;;;;;;;;;4992941;28;20462;-62
2021/05/30 12:26:32;;;;;;;7.23;5.50;;;;;;;;;;4991918;28;20470;-62
2021/05/30 12:28:59;;;;;;;7.30;5.40;;;;;;;;;;4992516;28;20442;-62
2021/05/30 12:31:26;;;;;;;6.63;6.03;;;;;;;;;;4992557;28;20457;-62
2021/05/30 12:33:53;;;;;;;6.83;6.23;;;;;;;;;;4992662;28;20467;-62
2021/05/30 12:36:31;;;;;;;7.83;6.50;;;;;;;;;;4991892;28;20940;-61
2021/05/30 12:39:01;;;;;;;7.17;6.23;;;;;;;;;;4992327;28;20533;-62
2021/05/30 12:41:31;;;;;;;7.90;6.73;;;;;;;;;;4992265;28;20961;-62
2021/05/30 12:44:04;;;;;;;6.77;5.90;;;;;;;;;;4991566;28;20770;-62
2021/05/30 12:46:31;;;;;;;6.90;6.20;;;;;;;;;;4991628;28;20528;-62
2021/05/30 12:48:57;;;;;;;8.30;6.70;;;;;;;;;;4992555;28;20476;-62
2021/05/30 12:51:27;;;;;;;7.60;6.90;;;;;;;;;;4992275;28;20450;-62
2021/05/30 12:53:54;;;;;;;8.20;6.10;;;;;;;;;;4991966;28;20471;-64
2021/05/30 12:56:22;;;;;;;8.90;7.97;;;;;;;;;;4991574;28;20454;-62
2021/05/30 12:59:04;;;;;;;9.20;8.40;;;;;;;;;;4992048;28;20497;-62
2021/05/30 13:01:33;;;;;;;7.83;7.13;;;;;;;;;;4990123;28;20459;-63
2021/05/30 13:04:17;;;;;;;6.97;6.27;;;;;;;;;;4991662;28;20467;-62
2021/05/30 13:06:52;;;;;;;7.90;7.13;;;;;;;;;;4991186;28;20957;-62
2021/05/30 13:09:20;;;;;;;7.57;6.20;;;;;;;;;;4992485;28;20474;-62
2021/05/30 13:11:46;;;;;;;8.23;7.00;;;;;;;;;;4992320;28;20446;-62
2021/05/30 13:14:26;;;;;;;8.10;6.90;;;;;;;;;;4991720;28;20540;-62
2021/05/30 13:16:53;;;;;;;6.83;6.23;;;;;;;;;;4991262;28;20438;-63
2021/05/30 13:19:20;;;;;;;7.10;6.40;;;;;;;;;;4992046;28;20451;-62
2021/05/30 13:21:47;;;;;;;11.07;8.20;;;;;;;;;;4992225;28;20450;-62
2021/05/30 13:24:14;;;;;;;7.63;6.93;;;;;;;;;;4992448;28;20550;-62
2021/05/30 13:26:45;;;;;;;8.63;7.83;;;;;;;;;;4991567;28;20454;-62
2021/05/30 13:29:17;;;;;;;7.47;6.67;;;;;;;;;;4991681;28;20450;-62
2021/05/30 13:31:44;;;;;;;8.37;7.50;;;;;;;;;;4991819;28;20458;-63
2021/05/30 13:34:10;;;;;;;7.17;6.57;;;;;;;;;;4991973;28;21009;-63
2021/05/30 13:36:38;;;;;;;7.47;6.77;;;;;;;;;;4991551;28;20462;-62
2021/05/30 13:39:05;;;;;;;9.27;7.70;;;;;;;;;;4991820;28;20962;-62
2021/05/30 13:41:31;;;;;;;7.40;5.80;;;;;;;;;;4992191;28;20480;-62
2021/05/30 13:44:00;;;;;;;7.53;6.73;;;;;;;;;;4991654;28;21062;-62
2021/05/30 13:46:27;;;;;;;8.60;7.40;;;;;;;;;;4991231;28;20465;-62
2021/05/30 13:48:54;;;;;;;8.80;8.00;;;;;;;;;;4991378;28;20493;-63
2021/05/30 13:51:21;;;;;;;8.30;7.50;;;;;;;;;;4992040;28;20487;-63
2021/05/30 13:53:48;;;;;;;8.07;6.70;;;;;;;;;;4992089;28;20486;-62
2021/05/30 13:56:15;;;;;;;8.43;7.60;;;;;;;;;;4991003;28;20486;-62
2021/05/30 13:58:42;;;;;;;11.83;9.00;;;;;;;;;;4991702;28;20957;-62
2021/05/30 14:01:11;;;;;;;9.37;8.47;;;;;;;;;;4991969;28;20457;-62
2021/05/30 14:03:38;;;;;;;9.20;7.80;;;;;;;;;;4992152;28;20528;-62
2021/05/30 14:06:05;;;;;;;7.77;7.10;;;;;;;;;;4990664;28;20465;-66
2021/05/30 14:08:32;;;;;;;7.30;6.70;;;;;;;;;;4992561;28;20460;-62
2021/05/30 14:10:59;;;;;;;6.47;5.83;;;;;;;;;;4991646;28;20489;-62
2021/05/30 14:13:25;;;;;;;10.67;7.53;;;;;;;;;;4991860;28;20466;-62
2021/05/30 14:15:53;;;;;;;7.77;7.00;;;;;;;;;;4992120;28;20450;-62
2021/05/30 14:18:20;;;;;;;8.23;7.00;;;;;;;;;;4995266;28;21001;-63
2021/05/30 14:20:47;;;;;;;7.77;7.07;;;;;;;;;;4995774;28;20454;-62
2021/05/30 14:23:13;;;;;;;8.30;7.50;;;;;;;;;;4995030;28;20483;-63
2021/05/30 14:25:41;;;;;;;7.27;6.67;;;;;;;;;;4994417;28;20459;-62
2021/05/30 14:28:08;;;;;;;7.07;6.40;;;;;;;;;;4994998;28;20454;-62
2021/05/30 14:30:35;;;;;;;8.07;6.40;;;;;;;;;;4995390;28;20548;-61
2021/05/30 14:33:02;;;;;;;8.00;6.33;;;;;;;;;;4994748;28;20985;-63
2021/05/30 14:35:29;;;;;;;7.13;6.00;;;;;;;;;;4994698;28;20458;-62
2021/05/30 14:37:56;;;;;;;4.30;3.90;;;;;;;;;;4994257;28;20454;-61